Time;durP1;ratioP1;P1;durP2;ratioP2;P2;SDS_P1;SDS_P2;PMS_P1;PMS_P2;Temp;Humidity;BMP_temperature;BMP_pressure;BME280_temperature;BME280_humidity;BME280_pressure;Samples;Min_cycle;Max_cycle;Signal;HPM_P1;HPM_P2
2023/01/12 00:01:39;;;;;;;27.63;4.50;;;;;;;7.46;100.00;100257.09;5109247;28;20039;-72
2023/01/12 00:04:05;;;;;;;22.33;3.50;;;;;;;7.50;100.00;100234.25;5109824;28;20023;-72
2023/01/12 00:06:31;;;;;;;29.27;4.88;;;;;;;7.48;100.00;100241.63;5109991;28;20184;-73
2023/01/12 00:08:57;;;;;;;30.80;4.80;;;;;;;7.54;100.00;100227.53;5109675;28;20034;-73
2023/01/12 00:11:22;;;;;;;28.48;5.38;;;;;;;7.65;100.00;100238.06;5109480;28;20122;-73
2023/01/12 00:13:47;;;;;;;35.67;4.88;;;;;;;7.72;100.00;100239.16;5110007;28;20165;-73
2023/01/12 00:16:34;;;;;;;28.35;5.45;;;;;;;7.59;100.00;100236.00;5109864;28;20031;-73
2023/01/12 00:19:10;;;;;;;24.88;3.60;;;;;;;7.61;100.00;100244.75;5110145;28;20059;-72
2023/01/12 00:24:33;;;;;;;26.88;5.25;;;;;;;7.64;100.00;100254.41;5110235;28;20050;-72
2023/01/12 00:27:00;;;;;;;22.17;4.22;;;;;;;7.69;100.00;100236.75;5110593;28;20027;-73
2023/01/12 00:29:26;;;;;;;20.23;4.47;;;;;;;7.67;100.00;100249.53;5110317;28;20075;-72
2023/01/12 00:31:53;;;;;;;23.38;4.07;;;;;;;7.65;100.00;100230.00;5109996;28;20027;-73
2023/01/12 00:34:18;;;;;;;23.60;4.90;;;;;;;7.61;100.00;100213.28;5109622;28;20091;-73
2023/01/12 00:36:45;;;;;;;23.55;4.43;;;;;;;7.73;100.00;100237.28;5110695;28;20066;-73
2023/01/12 00:39:11;;;;;;;22.75;4.15;;;;;;;7.77;100.00;100223.38;5109617;28;20153;-72
2023/01/12 00:47:08;;;;;;;24.77;4.25;;;;;;;7.74;100.00;100217.44;5110401;28;20019;-73
2023/01/12 00:49:35;;;;;;;23.27;3.75;;;;;;;7.79;100.00;100212.41;5110745;28;20030;-72
2023/01/12 00:52:00;;;;;;;21.35;5.13;;;;;;;7.76;100.00;100221.69;5113697;28;20016;-72
2023/01/12 00:54:25;;;;;;;29.90;4.95;;;;;;;7.77;100.00;100231.44;5128230;27;20019;-72
2023/01/12 00:56:51;;;;;;;25.55;5.75;;;;;;;7.79;100.00;100231.28;5134102;27;20019;-73
2023/01/12 00:59:16;;;;;;;18.00;3.78;;;;;;;7.88;100.00;100215.00;5133486;27;20118;-73
2023/01/12 01:01:42;;;;;;;23.95;4.70;;;;;;;7.85;100.00;100214.50;5133941;27;20031;-73
2023/01/12 01:04:07;;;;;;;15.68;4.00;;;;;;;7.84;100.00;100208.25;5133612;27;20054;-72
2023/01/12 01:06:35;;;;;;;24.13;4.43;;;;;;;7.89;100.00;100195.16;5118718;27;20165;-72
2023/01/12 01:09:00;;;;;;;20.80;4.30;;;;;;;7.87;100.00;100197.16;5114586;27;20085;-72
2023/01/12 01:11:26;;;;;;;20.83;4.03;;;;;;;7.77;100.00;100207.19;5113122;28;20081;-73
2023/01/12 01:13:53;;;;;;;27.45;3.40;;;;;;;7.81;100.00;100192.38;5112909;28;20027;-74
2023/01/12 01:16:18;;;;;;;23.77;4.63;;;;;;;7.79;100.00;100210.56;5114017;28;20062;-73
2023/01/12 01:18:43;;;;;;;20.38;4.47;;;;;;;7.81;100.00;100187.00;5113184;28;20054;-73
2023/01/12 01:21:11;;;;;;;21.02;4.07;;;;;;;7.81;100.00;100197.78;5114252;27;20034;-71
2023/01/12 01:23:37;;;;;;;24.55;4.85;;;;;;;7.83;100.00;100184.16;5112712;28;20019;-72
2023/01/12 01:26:07;;;;;;;25.70;3.88;;;;;;;7.91;100.00;100188.75;5112764;28;20032;-72
2023/01/12 01:28:33;;;;;;;20.63;4.82;;;;;;;7.83;100.00;100190.41;5112463;28;20023;-71
2023/01/12 01:31:13;;;;;;;31.83;4.47;;;;;;;7.93;100.00;100192.97;5112764;28;20027;-72
2023/01/12 01:33:39;;;;;;;18.63;3.75;;;;;;;8.07;100.00;100196.94;5112859;28;20031;-74
2023/01/12 01:36:04;;;;;;;22.05;3.80;;;;;;;8.08;100.00;100186.00;5112474;28;20468;-74
2023/01/12 01:38:30;;;;;;;26.02;3.45;;;;;;;7.99;100.00;100207.69;5113868;27;20019;-72
2023/01/12 01:40:56;;;;;;;27.30;3.75;;;;;;;8.04;100.00;100202.66;5112918;28;20028;-72
2023/01/12 01:43:23;;;;;;;25.63;3.58;;;;;;;8.04;100.00;100191.88;5112679;28;20063;-72
2023/01/12 01:45:57;;;;;;;20.88;4.15;;;;;;;8.09;100.00;100200.34;5112721;28;20035;-72
2023/01/12 01:48:24;;;;;;;23.63;3.97;;;;;;;8.12;100.00;100205.41;5112518;28;20024;-72
2023/01/12 01:51:01;;;;;;;21.35;3.55;;;;;;;8.09;100.00;100200.34;5112996;28;20412;-72
2023/01/12 01:53:30;;;;;;;13.32;3.05;;;;;;;8.12;100.00;100213.50;5112766;28;20502;-74
2023/01/12 01:56:01;;;;;;;21.13;4.80;;;;;;;8.15;100.00;100200.56;5111933;28;20073;-72
2023/01/12 01:58:41;;;;;;;19.15;4.10;;;;;;;8.13;100.00;100204.41;5113276;27;20050;-72
2023/01/12 02:01:08;;;;;;;23.55;3.90;;;;;;;8.25;100.00;100195.03;5112091;28;20102;-73
2023/01/12 02:03:34;;;;;;;19.65;5.32;;;;;;;8.19;100.00;100195.69;5112041;28;20027;-71
2023/01/12 02:05:59;;;;;;;16.58;4.00;;;;;;;8.18;100.00;100187.75;5112033;28;20024;-71
2023/01/12 02:08:46;;;;;;;23.38;4.53;;;;;;;8.21;100.00;100177.47;5111771;28;20046;-72
2023/01/12 02:17:02;;;;;;;19.40;3.63;;;;;;;8.30;100.00;100187.31;5113151;28;20093;-72
2023/01/12 02:19:38;;;;;;;18.33;3.47;;;;;;;8.39;100.00;100180.16;5111829;28;20113;-72
2023/01/12 02:22:15;;;;;;;16.80;3.88;;;;;;;8.28;100.00;100189.34;5111706;28;20076;-72
2023/01/12 02:24:41;;;;;;;10.57;3.17;;;;;;;8.32;100.00;100196.09;5111020;28;20135;-71
2023/01/12 02:27:29;;;;;;;17.00;3.90;;;;;;;8.32;100.00;100188.00;5111190;28;20559;-72
2023/01/12 02:30:17;;;;;;;17.13;3.22;;;;;;;8.32;100.00;100206.88;5111963;28;20073;-72
2023/01/12 02:32:59;;;;;;;26.50;4.47;;;;;;;8.32;100.00;100189.84;5110779;28;20035;-72
2023/01/12 02:35:36;;;;;;;17.85;3.30;;;;;;;8.25;100.00;100189.66;5111855;28;20161;-72
2023/01/12 02:38:29;;;;;;;16.98;3.60;;;;;;;8.31;100.00;100189.00;5111829;28;20035;-73
2023/01/12 02:42:39;;;;;;;20.77;4.00;;;;;;;8.26;100.00;100196.72;5111906;27;20048;-73
2023/01/12 02:44:07;;;;;;;21.65;4.45;;;;;;;8.31;100.00;100194.41;5112640;28;20050;-71
2023/01/12 02:46:33;;;;;;;22.17;3.80;;;;;;;8.23;100.00;100180.88;5111003;28;20023;-72
2023/01/12 02:49:11;;;;;;;16.35;3.45;;;;;;;8.23;100.00;100172.78;5110962;28;20024;-71
2023/01/12 02:51:42;;;;;;;22.98;4.22;;;;;;;8.26;100.00;100164.38;5110824;28;20027;-72
2023/01/12 02:54:11;;;;;;;29.77;3.80;;;;;;;8.24;100.00;100177.19;5111774;28;20495;-72
2023/01/12 02:56:40;;;;;;;20.80;3.03;;;;;;;8.30;100.00;100171.16;5110546;28;20043;-72
2023/01/12 02:59:17;;;;;;;20.35;3.90;;;;;;;8.21;100.00;100177.47;5110651;28;20043;-74
2023/01/12 03:01:47;;;;;;;15.48;3.17;;;;;;;8.21;100.00;100172.09;5111025;28;20140;-72
2023/01/12 03:04:14;;;;;;;18.67;3.20;;;;;;;8.24;100.00;100171.78;5111136;28;20023;-72
2023/01/12 03:07:02;;;;;;;14.18;3.05;;;;;;;8.27;100.00;100174.16;5112027;28;20024;-72
2023/01/12 03:09:33;;;;;;;13.40;2.88;;;;;;;8.42;100.00;100175.28;5100028;28;20492;-71
2023/01/12 03:12:05;;;;;;;13.98;3.80;;;;;;;8.28;100.00;100172.28;5110193;28;20298;-72
2023/01/12 03:14:35;;;;;;;17.40;3.15;;;;;;;8.40;100.00;100182.66;5111344;27;20024;-72
2023/01/12 03:17:05;;;;;;;12.70;2.80;;;;;;;8.25;100.00;100178.88;5109936;28;20028;-72
2023/01/12 03:19:32;;;;;;;19.92;3.78;;;;;;;8.20;100.00;100170.41;5110328;28;20020;-72
2023/01/12 03:21:57;;;;;;;15.75;3.65;;;;;;;8.15;100.00;100167.38;5110137;28;20024;-72
2023/01/12 03:24:34;;;;;;;14.38;3.03;;;;;;;8.25;100.00;100178.03;5111037;28;20080;-71
2023/01/12 03:27:11;;;;;;;21.00;2.95;;;;;;;8.19;100.00;100184.91;5110060;28;20030;-72
2023/01/12 03:29:43;;;;;;;12.32;2.30;;;;;;;7.97;100.00;100180.06;5110683;28;20031;-72
2023/01/12 03:32:08;;;;;;;8.77;2.30;;;;;;;7.87;100.00;100172.91;5110777;28;20097;-72
2023/01/12 03:34:35;;;;;;;18.35;2.90;;;;;;;7.93;100.00;100184.06;5110315;28;20139;-72
2023/01/12 03:37:22;;;;;;;14.57;2.70;;;;;;;8.05;100.00;100182.78;5109161;28;20024;-72
2023/01/12 03:40:00;;;;;;;14.88;2.35;;;;;;;8.06;100.00;100179.94;5109952;28;20076;-72
2023/01/12 03:42:39;;;;;;;9.77;2.83;;;;;;;7.96;100.00;100168.44;5109981;28;20431;-73
2023/01/12 03:45:10;;;;;;;15.32;2.58;;;;;;;7.99;100.00;100162.69;5120476;27;20029;-71
2023/01/12 03:47:36;;;;;;;13.10;2.47;;;;;;;8.08;100.00;100160.91;5131612;27;20023;-72
2023/01/12 03:50:18;;;;;;;18.85;2.85;;;;;;;8.03;100.00;100163.25;5130644;27;20035;-73
2023/01/12 03:52:44;;;;;;;;;;;;;;;8.04;100.00;100159.53;5130413;27;20023;-73
2023/01/12 03:55:13;;;;;;;12.50;3.30;;;;;;;8.03;100.00;100176.72;5130437;27;20006;-73
2023/01/12 03:57:39;;;;;;;20.83;3.53;;;;;;;7.98;100.00;100160.19;5130229;27;20019;-73
2023/01/12 04:00:08;;;;;;;14.57;2.80;;;;;;;7.99;100.00;100151.91;5130562;27;20020;-72
2023/01/12 04:02:34;;;;;;;12.70;2.70;;;;;;;7.91;100.00;100148.34;5130150;27;20034;-72
2023/01/12 04:04:59;;;;;;;24.15;3.67;;;;;;;8.08;100.00;100150.09;5129950;27;20031;-71
2023/01/12 04:07:25;;;;;;;16.02;3.00;;;;;;;8.13;100.00;100153.19;5130234;27;20502;-72
2023/01/12 04:09:51;;;;;;;13.73;2.50;;;;;;;8.03;100.00;100141.69;5130207;27;20059;-73
2023/01/12 04:12:17;;;;;;;8.48;2.65;;;;;;;7.95;100.00;100144.31;5131642;28;20046;-73
2023/01/12 04:14:44;;;;;;;16.45;2.80;;;;;;;7.98;100.00;100138.59;5130392;28;20035;-72
2023/01/12 04:17:12;;;;;;;10.57;2.40;;;;;;;8.00;100.00;100141.97;5129944;28;20103;-73
2023/01/12 04:19:38;;;;;;;18.75;2.97;;;;;;;8.01;100.00;100133.72;5130281;28;20028;-72
2023/01/12 04:24:48;;;;;;;24.63;4.20;;;;;;;8.14;100.00;100127.91;5134561;27;20034;-73
2023/01/12 04:27:14;;;;;;;20.65;3.00;;;;;;;8.11;100.00;100136.31;5133928;27;20015;-73
2023/01/12 04:29:40;;;;;;;20.20;2.85;;;;;;;8.15;100.00;100135.84;5134330;27;20030;-73
2023/01/12 04:32:06;;;;;;;15.25;3.25;;;;;;;8.24;100.00;100134.03;5134126;27;20015;-73
2023/01/12 04:34:31;;;;;;;21.90;4.50;;;;;;;8.29;100.00;100122.75;5134305;27;20101;-73
2023/01/12 04:36:56;;;;;;;22.73;3.95;;;;;;;8.24;100.00;100120.53;5134407;27;20046;-73
2023/01/12 04:39:22;;;;;;;11.50;2.70;;;;;;;8.14;100.00;100122.50;5134242;27;20027;-74
2023/01/12 04:41:47;;;;;;;20.90;3.65;;;;;;;8.22;100.00;100117.19;5133830;27;20035;-74
2023/01/12 04:44:13;;;;;;;22.30;3.50;;;;;;;8.23;100.00;100110.78;5134039;27;20054;-73
2023/01/12 04:46:38;;;;;;;15.13;2.78;;;;;;;8.34;100.00;100105.06;5135435;27;20063;-73
2023/01/12 04:49:03;;;;;;;17.67;3.53;;;;;;;8.16;100.00;100109.72;5133824;27;20063;-73
2023/01/12 04:51:29;;;;;;;18.08;3.40;;;;;;;8.25;100.00;100103.34;5135155;27;20057;-73
2023/01/12 04:53:54;;;;;;;19.15;2.85;;;;;;;8.29;100.00;100115.53;5135143;27;20471;-73
2023/01/12 04:56:19;;;;;;;16.25;2.83;;;;;;;8.17;100.00;100095.25;5134029;27;20079;-75
2023/01/12 04:58:45;;;;;;;13.80;2.90;;;;;;;8.19;100.00;100098.59;5135003;27;20090;-73
2023/01/12 05:01:21;;;;;;;24.58;3.25;;;;;;;8.19;100.00;100087.81;5133624;27;20033;-73
2023/01/12 05:03:46;;;;;;;14.65;3.08;;;;;;;8.34;100.00;100086.19;5133490;27;20095;-74
2023/01/12 05:06:12;;;;;;;16.02;3.08;;;;;;;8.29;100.00;100091.25;5134774;27;20391;-73
2023/01/12 05:11:27;;;;;;;19.48;3.10;;;;;;;8.24;100.00;100080.09;5135005;27;20019;-73
2023/01/12 05:13:53;;;;;;;16.75;3.03;;;;;;;8.21;100.00;100074.16;5134073;27;20062;-74
2023/01/12 05:16:18;;;;;;;24.15;4.05;;;;;;;8.31;100.00;100075.75;5133605;27;20100;-74
2023/01/12 05:18:44;;;;;;;16.40;3.38;;;;;;;8.23;100.00;100073.03;5134361;27;20542;-72
2023/01/12 05:21:11;;;;;;;13.43;3.05;;;;;;;8.15;100.00;100060.34;5133822;27;20080;-73
2023/01/12 05:23:36;;;;;;;16.15;2.85;;;;;;;8.11;100.00;100058.13;5133222;27;20026;-72
2023/01/12 05:26:03;;;;;;;15.70;3.78;;;;;;;8.02;100.00;100053.69;5133447;27;20379;-73
2023/01/12 05:28:29;;;;;;;15.60;2.97;;;;;;;8.04;100.00;100046.31;5133109;27;20041;-72
2023/01/12 05:31:01;;;;;;;16.90;2.97;;;;;;;7.92;100.00;100053.84;5133908;27;20023;-73
2023/01/12 05:33:26;;;;;;;10.65;3.22;;;;;;;7.93;100.00;100041.22;5133580;27;20076;-74
2023/01/12 05:35:52;;;;;;;16.60;3.22;;;;;;;7.92;100.00;100028.75;5115700;27;20020;-73
2023/01/12 05:38:17;;;;;;;15.15;3.83;;;;;;;7.84;100.00;100024.16;5112137;28;20035;-73
2023/01/12 05:40:42;;;;;;;13.82;3.83;;;;;;;7.85;100.00;100021.31;5111584;28;20055;-73
2023/01/12 05:45:56;;;;;;;17.48;4.22;;;;;;;7.65;100.00;100001.00;5113422;28;20045;-73
2023/01/12 05:48:21;;;;;;;16.40;4.38;;;;;;;7.71;100.00;100003.06;5112641;27;20019;-74
2023/01/12 05:50:46;;;;;;;18.38;4.15;;;;;;;7.74;100.00;99997.31;5111547;28;20391;-74
2023/01/12 05:53:12;;;;;;;10.07;3.50;;;;;;;7.68;100.00;99992.56;5113931;27;20028;-74
2023/01/12 05:55:37;;;;;;;12.48;4.07;;;;;;;7.63;100.00;99984.16;5120128;27;20068;-73
2023/01/12 05:58:03;;;;;;;18.10;4.40;;;;;;;7.55;100.00;99986.78;5112525;28;20024;-73
2023/01/12 06:00:29;;;;;;;15.40;4.45;;;;;;;7.58;100.00;99987.34;5111137;28;20020;-73
2023/01/12 06:02:54;;;;;;;22.42;4.70;;;;;;;7.57;100.00;99974.03;5111397;28;20023;-73
2023/01/12 06:05:19;;;;;;;19.13;4.40;;;;;;;7.56;100.00;99958.84;5110733;28;20102;-73
2023/01/12 06:07:45;;;;;;;16.88;4.97;;;;;;;7.54;100.00;99964.41;5110956;28;20157;-73
2023/01/12 06:10:11;;;;;;;23.50;4.55;;;;;;;7.56;100.00;99973.19;5111078;28;20072;-73
2023/01/12 06:15:20;;;;;;;19.65;5.07;;;;;;;7.56;100.00;99958.84;5112507;28;20020;-73
2023/01/12 06:17:46;;;;;;;21.45;4.80;;;;;;;7.63;100.00;99962.59;5110720;28;20030;-73
2023/01/12 06:20:15;;;;;;;21.35;5.82;;;;;;;7.49;100.00;99944.34;5111112;28;20106;-73
2023/01/12 06:22:42;;;;;;;11.57;5.07;;;;;;;7.62;100.00;99934.81;5112338;28;20020;-73
2023/01/12 06:25:07;;;;;;;19.35;5.53;;;;;;;7.56;100.00;99934.59;5112178;28;20027;-73
2023/01/12 06:27:34;;;;;;;20.20;5.72;;;;;;;7.51;100.00;99931.56;5111451;28;20031;-73
2023/01/12 06:30:00;;;;;;;23.00;5.97;;;;;;;7.49;100.00;99922.78;5110461;28;20040;-73
2023/01/12 06:32:27;;;;;;;21.25;6.28;;;;;;;7.43;100.00;99928.81;5110924;28;20036;-72
2023/01/12 06:34:52;;;;;;;23.80;6.28;;;;;;;7.54;100.00;99920.47;5110613;28;20068;-73
2023/01/12 06:37:18;;;;;;;30.60;7.78;;;;;;;7.59;100.00;99920.81;5111499;28;20135;-73
2023/01/12 06:39:43;;;;;;;16.20;7.35;;;;;;;7.63;100.00;99919.50;5110449;28;20035;-73
2023/01/12 06:44:56;;;;;;;17.05;7.05;;;;;;;7.64;100.00;99901.50;5112062;28;20019;-73
2023/01/12 06:47:22;;;;;;;19.50;8.20;;;;;;;7.73;100.00;99912.13;5109614;28;20435;-73
2023/01/12 06:49:50;;;;;;;15.63;6.70;;;;;;;7.66;100.00;99891.38;5110901;28;20037;-73
2023/01/12 06:52:20;;;;;;;19.17;6.50;;;;;;;7.67;100.00;99893.91;5109840;28;20019;-73
2023/01/12 06:54:45;;;;;;;17.75;5.50;;;;;;;7.75;100.00;99896.63;5124979;27;20019;-73
2023/01/12 06:57:11;;;;;;;17.38;7.57;;;;;;;7.83;100.00;99893.13;5112017;27;20019;-73
2023/01/12 06:59:37;;;;;;;18.23;7.18;;;;;;;7.76;100.00;99879.47;5111203;28;20108;-73
2023/01/12 07:02:02;;;;;;;15.07;6.63;;;;;;;7.80;100.00;99883.50;5109967;28;20122;-73
2023/01/12 07:04:28;;;;;;;10.50;5.50;;;;;;;7.74;100.00;99859.06;5107712;28;20039;-73
2023/01/12 07:06:54;;;;;;;19.88;5.75;;;;;;;7.77;100.00;99859.59;5109297;28;20189;-73
2023/01/12 07:09:19;;;;;;;13.57;5.85;;;;;;;7.70;100.00;99855.88;5109868;28;20020;-73
2023/01/12 07:11:45;;;;;;;14.15;6.60;;;;;;;7.81;100.00;99858.25;5109891;28;20030;-73
2023/01/12 07:14:10;;;;;;;17.08;7.32;;;;;;;7.84;100.00;99840.91;5108984;28;20126;-73
2023/01/12 07:16:35;;;;;;;12.20;5.68;;;;;;;7.83;100.00;99852.72;5109193;28;20392;-73
2023/01/12 07:19:01;;;;;;;11.43;5.22;;;;;;;7.82;100.00;99838.41;5109647;28;20020;-72
2023/01/12 07:21:26;;;;;;;14.40;7.50;;;;;;;7.84;100.00;99825.59;5109074;28;20165;-72
2023/01/12 07:23:51;;;;;;;16.60;6.35;;;;;;;7.81;100.00;99815.13;5115844;27;20023;-72
2023/01/12 07:26:17;;;;;;;18.63;6.40;;;;;;;7.80;100.00;99808.06;5109260;28;20123;-72
2023/01/12 07:28:42;;;;;;;15.88;6.55;;;;;;;7.72;100.00;99805.38;5108478;28;20023;-71
2023/01/12 07:31:08;;;;;;;14.88;4.80;;;;;;;7.84;100.00;99797.81;5108640;28;20028;-71
2023/01/12 07:33:35;;;;;;;12.13;6.25;;;;;;;7.83;100.00;99791.56;5110119;28;20055;-71
2023/01/12 07:36:01;;;;;;;15.32;6.18;;;;;;;7.83;100.00;99786.19;5109181;28;20034;-71
2023/01/12 07:38:27;;;;;;;19.92;7.07;;;;;;;7.85;100.00;99784.16;5109023;28;20028;-70
2023/01/12 07:40:56;;;;;;;11.57;5.68;;;;;;;7.77;100.00;99781.47;5109109;28;20037;-70
2023/01/12 07:43:22;;;;;;;15.52;6.55;;;;;;;7.82;100.00;99775.56;5109956;28;20035;-70
2023/01/12 07:45:47;;;;;;;19.70;6.57;;;;;;;7.80;100.00;99764.94;5109235;28;20085;-70
2023/01/12 07:48:14;;;;;;;13.20;5.18;;;;;;;7.80;100.00;99759.56;5109111;28;20070;-70
2023/01/12 07:50:40;;;;;;;16.55;6.03;;;;;;;7.78;100.00;99766.97;5109229;28;20059;-70
2023/01/12 07:53:05;;;;;;;11.85;5.63;;;;;;;7.84;100.00;99760.91;5098640;27;20055;-71
2023/01/12 07:55:31;;;;;;;13.45;5.75;;;;;;;7.87;100.00;99755.19;5127459;27;20020;-70
2023/01/12 07:58:02;;;;;;;21.70;4.75;;;;;;;7.95;100.00;99742.72;5127858;27;20073;-71
2023/01/12 08:00:28;;;;;;;20.20;5.60;;;;;;;7.89;100.00;99753.19;5106394;27;20027;-71
2023/01/12 08:02:57;;;;;;;13.32;3.55;;;;;;;7.89;100.00;99744.25;5105783;27;20027;-73
2023/01/12 08:05:23;;;;;;;15.10;5.15;;;;;;;7.94;100.00;99749.13;5111257;27;20042;-72
2023/01/12 08:07:48;;;;;;;16.65;4.55;;;;;;;7.91;100.00;99744.09;5107588;28;20015;-72
2023/01/12 08:10:16;;;;;;;14.23;4.18;;;;;;;7.86;100.00;99740.03;5104339;28;20052;-72
2023/01/12 08:12:41;;;;;;;4.03;2.15;;;;;;;7.95;100.00;99724.69;5107247;28;20033;-71
2023/01/12 08:15:08;;;;;;;5.60;2.88;;;;;;;7.93;100.00;99720.50;5110143;28;20031;-71
2023/01/12 08:17:39;;;;;;;7.97;2.10;;;;;;;7.93;100.00;99720.50;5103362;28;20026;-71
2023/01/12 08:20:12;;;;;;;8.07;1.98;;;;;;;7.88;100.00;99702.97;5106469;28;20088;-71
2023/01/12 08:22:41;;;;;;;5.88;2.17;;;;;;;7.86;100.00;99699.59;5100966;28;20024;-70
2023/01/12 08:25:16;;;;;;;10.55;2.22;;;;;;;7.93;100.00;99705.16;5106590;28;20027;-71
2023/01/12 08:27:46;;;;;;;7.60;1.95;;;;;;;7.86;100.00;99698.75;5104793;28;20030;-71
2023/01/12 08:30:16;;;;;;;5.93;1.67;;;;;;;7.82;100.00;99681.25;5112090;28;20019;-70
2023/01/12 08:32:42;;;;;;;10.52;2.35;;;;;;;7.80;100.00;99689.50;5110326;28;20081;-71
2023/01/12 08:35:08;;;;;;;6.45;1.60;;;;;;;7.77;100.00;99684.47;5105737;28;20024;-71
2023/01/12 08:37:34;;;;;;;10.00;2.35;;;;;;;7.77;100.00;99684.47;5102407;28;20016;-71
2023/01/12 08:39:59;;;;;;;5.90;1.77;;;;;;;7.83;100.00;99673.00;5104227;28;20084;-71
2023/01/12 08:42:26;;;;;;;6.30;1.63;;;;;;;7.83;100.00;99673.00;5105811;28;20042;-70
2023/01/12 08:44:53;;;;;;;8.45;1.60;;;;;;;7.78;100.00;99680.75;5107731;28;20035;-70
2023/01/12 08:47:27;;;;;;;5.25;1.80;;;;;;;7.73;100.00;99672.34;5102191;28;20055;-71
2023/01/12 08:49:59;;;;;;;8.77;2.78;;;;;;;7.69;100.00;99660.19;5106628;28;20023;-70
2023/01/12 08:52:24;;;;;;;9.45;2.50;;;;;;;7.69;100.00;99670.97;5107952;28;20046;-72
2023/01/12 08:54:50;;;;;;;9.93;2.00;;;;;;;7.64;100.00;99659.91;5109216;28;20031;-72
2023/01/12 08:57:18;;;;;;;8.93;1.98;;;;;;;7.65;100.00;99656.19;5116871;28;20023;-71
2023/01/12 08:59:43;;;;;;;5.25;1.40;;;;;;;7.67;100.00;99640.69;5106646;28;20110;-71
2023/01/12 09:02:13;;;;;;;4.60;1.73;;;;;;;7.72;100.00;99651.81;5114751;28;20106;-72
2023/01/12 09:04:39;;;;;;;9.90;2.17;;;;;;;7.73;100.00;99650.78;5106372;28;20118;-72
2023/01/12 09:07:06;;;;;;;5.78;1.75;;;;;;;7.74;100.00;99651.63;5114266;28;20087;-72
2023/01/12 09:09:31;;;;;;;5.43;1.60;;;;;;;7.74;100.00;99652.47;5114616;27;20076;-71
2023/01/12 09:11:57;;;;;;;5.15;1.60;;;;;;;7.75;100.00;99643.38;5120003;27;20028;-72
2023/01/12 09:14:24;;;;;;;4.70;1.35;;;;;;;7.78;100.00;99637.66;5106184;28;20020;-72
2023/01/12 09:16:50;;;;;;;3.60;1.48;;;;;;;7.81;100.00;99653.47;5116500;27;20027;-72
2023/01/12 09:19:15;;;;;;;8.27;1.38;;;;;;;7.85;100.00;99644.03;5111635;27;20015;-72
2023/01/12 09:21:41;;;;;;;3.58;1.48;;;;;;;7.84;100.00;99636.13;5105112;27;20026;-72
2023/01/12 09:24:08;;;;;;;2.40;1.00;;;;;;;7.77;100.00;99651.31;5105513;27;20095;-72
2023/01/12 09:26:44;;;;;;;2.38;1.30;;;;;;;7.85;100.00;99644.03;5145985;27;20055;-71
2023/01/12 09:29:11;;;;;;;6.32;1.40;;;;;;;7.86;100.00;99643.03;5116832;27;20019;-72
2023/01/12 09:31:39;;;;;;;5.97;1.35;;;;;;;7.77;100.00;99668.31;5122146;27;20031;-71
2023/01/12 09:34:04;;;;;;;10.63;1.73;;;;;;;7.85;100.00;99649.44;5120938;27;20059;-71
2023/01/12 09:36:32;;;;;;;6.55;1.20;;;;;;;7.87;100.00;99641.16;5112879;27;20051;-71
2023/01/12 09:38:58;;;;;;;1.65;1.20;;;;;;;7.97;100.00;99630.22;5114105;27;20064;-71
2023/01/12 09:47:34;;;;;;;4.53;1.10;;;;;;;8.07;100.00;99641.63;5119444;27;20114;-71
2023/01/12 09:50:02;;;;;;;6.07;1.13;;;;;;;8.13;100.00;99647.16;5115711;27;20031;-71
2023/01/12 09:52:36;;;;;;;3.35;1.13;;;;;;;8.17;100.00;99647.69;5119310;27;20027;-72
2023/01/12 09:55:01;;;;;;;2.92;1.55;;;;;;;8.20;100.00;99641.91;5112915;27;20024;-71
2023/01/12 09:57:53;;;;;;;3.92;1.48;;;;;;;8.25;100.00;99644.94;5104188;27;20521;-71
2023/01/12 10:00:19;;;;;;;;;;;;;;;8.31;100.00;99632.63;5105494;27;20114;-71
2023/01/12 10:03:05;;;;;;;2.70;1.15;;;;;;;8.36;100.00;99658.09;5109423;27;19978;-71
2023/01/12 10:05:33;;;;;;;10.55;0.90;;;;;;;8.50;100.00;99639.50;5099887;27;20115;-71
2023/01/12 10:07:59;;;;;;;3.45;1.00;;;;;;;8.57;100.00;99644.03;5119129;27;20035;-71
2023/01/12 10:10:24;;;;;;;2.15;1.10;;;;;;;8.58;100.00;99631.38;5109683;27;20081;-72
2023/01/12 10:12:55;;;;;;;3.55;1.20;;;;;;;8.51;100.00;99633.09;5110451;27;20034;-71
2023/01/12 10:15:30;;;;;;;3.75;1.38;;;;;;;8.58;100.00;99650.25;5099543;27;20023;-72
2023/01/12 10:18:16;;;;;;;3.47;1.13;;;;;;;8.64;100.00;99654.94;5119057;27;20023;-72
2023/01/12 10:20:44;;;;;;;2.97;1.10;;;;;;;8.58;100.00;99645.69;5111553;27;20027;-72
2023/01/12 10:23:15;;;;;;;2.58;1.08;;;;;;;8.62;100.00;99635.41;5112455;27;20015;-72
2023/01/12 10:26:29;;;;;;;3.45;0.82;;;;;;;8.68;100.00;99640.09;5109061;27;20026;-72
2023/01/12 10:28:55;;;;;;;2.33;0.93;;;;;;;8.69;100.00;99637.22;5092245;27;20024;-72
2023/01/12 10:31:22;;;;;;;1.40;0.93;;;;;;;8.83;100.00;99638.31;5116299;27;20019;-72
2023/01/12 10:34:10;;;;;;;2.42;1.00;;;;;;;8.81;100.00;99640.38;5100445;27;20016;-69
2023/01/12 10:36:41;;;;;;;2.38;1.10;;;;;;;8.85;100.00;99652.47;5113039;27;20034;-71
2023/01/12 10:39:26;;;;;;;6.78;1.20;;;;;;;8.90;100.00;99643.84;5103661;27;20008;-73
2023/01/12 10:45:19;;;;;;;1.90;0.90;;;;;;;8.89;100.00;99648.41;5063359;28;20083;-70
2023/01/12 10:47:45;;;;;;;4.28;1.00;;;;;;;8.90;100.00;99697.84;5108164;27;20078;-70
2023/01/12 10:50:26;;;;;;;3.22;0.85;;;;;;;8.90;100.00;99643.84;5107082;27;20054;-71
2023/01/12 10:53:05;;;;;;;2.15;0.95;;;;;;;9.06;100.00;99648.28;5109712;27;20390;-72
2023/01/12 10:55:36;;;;;;;1.85;1.20;;;;;;;9.01;100.00;99626.41;5092000;27;20024;-71
2023/01/12 10:58:02;;;;;;;1.88;1.00;;;;;;;9.09;100.00;99658.75;5088669;27;20022;-70
2023/01/12 11:00:28;;;;;;;1.58;0.93;;;;;;;9.05;100.00;99630.41;5095843;27;20023;-71
2023/01/12 11:02:54;;;;;;;4.22;0.90;;;;;;;9.07;100.00;99639.22;5102565;27;20058;-73
2023/01/12 11:05:36;;;;;;;1.85;0.70;;;;;;;9.08;100.00;99630.09;5101710;27;20054;-73
2023/01/12 11:08:17;;;;;;;2.67;1.30;;;;;;;9.08;100.00;99646.28;5111191;27;20031;-74
2023/01/12 11:10:43;;;;;;;1.65;1.02;;;;;;;9.15;100.00;99636.44;5096044;27;20026;-70
2023/01/12 11:13:24;;;;;;;3.78;1.35;;;;;;;9.18;100.00;99625.28;5099814;27;20015;-70
2023/01/12 11:16:17;;;;;;;2.47;1.10;;;;;;;9.19;100.00;99635.03;5103850;27;20024;-70
2023/01/12 11:19:01;;;;;;;3.65;1.17;;;;;;;9.24;100.00;99629.94;5099107;27;20023;-70
2023/01/12 11:21:33;;;;;;;1.83;1.20;;;;;;;9.30;100.00;99615.72;5094585;27;20038;-70
2023/01/12 11:24:31;;;;;;;1.85;0.95;;;;;;;9.29;100.00;99640.22;5098447;27;20083;-70
2023/01/12 11:27:11;;;;;;;2.22;1.00;;;;;;;9.28;100.00;99628.59;5101895;27;20051;-70
2023/01/12 11:29:55;;;;;;;4.20;1.05;;;;;;;9.34;100.00;99641.38;5104045;27;20020;-71
2023/01/12 11:32:32;;;;;;;7.35;0.95;;;;;;;9.31;100.00;99662.47;5109460;27;20083;-71
2023/01/12 11:35:09;;;;;;;2.95;1.40;;;;;;;9.23;100.00;99682.28;5108596;27;20020;-73
2023/01/12 11:37:38;;;;;;;2.00;0.80;;;;;;;9.29;100.00;99654.56;5106515;27;20071;-72
2023/01/12 11:40:29;;;;;;;1.92;0.90;;;;;;;9.34;100.00;99618.91;5100165;27;20015;-72
2023/01/12 11:45:53;;;;;;;2.85;0.90;;;;;;;9.40;100.00;99643.34;5103338;27;20024;-72
2023/01/12 11:49:00;;;;;;;7.40;1.08;;;;;;;9.28;100.00;99631.28;5094366;27;20020;-73
2023/01/12 11:51:26;;;;;;;1.67;0.80;;;;;;;9.31;100.00;99620.09;5088716;27;20046;-73
2023/01/12 11:53:52;;;;;;;6.55;1.00;;;;;;;9.30;100.00;99629.22;5097823;27;20032;-73
2023/01/12 11:56:49;;;;;;;1.15;0.95;;;;;;;9.33;100.00;99633.44;5094295;27;20035;-73
2023/01/12 11:59:32;;;;;;;2.03;1.08;;;;;;;9.40;100.00;99619.03;5096434;27;20031;-73
2023/01/12 12:02:27;;;;;;;1.70;1.05;;;;;;;9.37;100.00;99643.69;5092601;27;20042;-73
2023/01/12 12:05:04;;;;;;;1.88;1.10;;;;;;;9.46;100.00;99629.13;5100316;28;20035;-74
2023/01/12 12:07:56;;;;;;;3.85;1.30;;;;;;;9.47;100.00;99636.19;5086453;27;20128;-74
2023/01/12 12:10:26;;;;;;;;;;;;;;;9.55;100.00;99637.97;5092856;27;20035;-73
2023/01/12 12:13:10;;;;;;;2.17;1.10;;;;;;;9.59;100.00;99657.38;5100267;27;19911;-74
2023/01/12 12:15:53;;;;;;;3.00;1.10;;;;;;;9.64;100.00;99636.03;5096316;28;20033;-73
2023/01/12 12:18:33;;;;;;;3.72;1.08;;;;;;;9.69;100.00;99644.44;5096867;28;20019;-73